Time;durP1;ratioP1;P1;durP2;ratioP2;P2;SDS_P1;SDS_P2;PMS_P1;PMS_P2;Temp;Humidity;BMP_temperature;BMP_pressure;BME280_temperature;BME280_humidity;BME280_pressure;Samples;Min_cycle;Max_cycle;Signal;HPM_P1;HPM_P2
2024/01/03 00:00:55;;;;;;;;;;;;;;;;;;5043927;28;19955;-64
2024/01/03 00:03:22;;;;;;;;;;;;;;;;;;5044480;28;19971;-65
2024/01/03 00:05:49;;;;;;;;;;;;;;;;;;5048492;28;19988;-65
2024/01/03 00:08:16;;;;;;;;;;;;;;;;;;5049412;28;19932;-65
2024/01/03 00:10:43;;;;;;;;;;;;;;;;;;5045760;28;19983;-65
2024/01/03 00:13:10;;;;;;;;;;;;;;;;;;5053193;28;19975;-65
2024/01/03 00:15:37;;;;;;;;;;;;;;;;;;5048173;28;19971;-65
2024/01/03 00:18:04;;;;;;;;;;;;;;;;;;5059008;28;19925;-64
2024/01/03 00:20:30;;;;;;;;;;;;;;;;;;5060725;28;19924;-65
2024/01/03 00:22:57;;;;;;;;;;;;;;;;;;5057016;28;19931;-64
2024/01/03 00:25:24;;;;;;;;;;;;;;;;;;5054234;28;19970;-64
2024/01/03 00:27:51;;;;;;;;;;;;;;;;;;5047036;28;19925;-64
2024/01/03 00:30:18;;;;;;;;;;;;;;;;;;5057935;28;19925;-65
2024/01/03 00:32:45;;;;;;;;;;;;;;;;;;5050421;28;19925;-63
2024/01/03 00:35:11;;;;;;;;;;;;;;;;;;5043495;28;19987;-62
2024/01/03 00:37:40;;;;;;;;;;;;;;;;;;5044663;28;19980;-64
2024/01/03 00:40:07;;;;;;;;;;;;;;;;;;5046831;28;19931;-63
2024/01/03 00:42:34;;;;;;;;;;;;;;;;;;5046619;28;20700;-64
2024/01/03 00:45:01;;;;;;;;;;;;;;;;;;5045786;28;20449;-63
2024/01/03 00:47:28;;;;;;;;;;;;;;;;;;5047072;28;19982;-63
2024/01/03 00:49:55;;;;;;;;;;;;;;;;;;5042943;28;19952;-63
2024/01/03 00:52:21;;;;;;;;;;;;;;;;;;5044197;28;20407;-63
2024/01/03 00:54:48;;;;;;;;;;;;;;;;;;5046374;28;19925;-64
2024/01/03 00:57:15;;;;;;;;;;;;;;;;;;5045866;28;19924;-63
2024/01/03 00:59:44;;;;;;;;;;;;;;;;;;5045865;28;19925;-62
2024/01/03 01:02:10;;;;;;;;;;;;;;;;;;5045385;28;19983;-63
2024/01/03 01:04:39;;;;;;;;;;;;;;;;;;5046118;28;19925;-64
2024/01/03 01:07:06;;;;;;;;;;;;;;;;;;5044704;28;20392;-62
2024/01/03 01:09:32;;;;;;;;;;;;;;;;;;5039470;28;19948;-64
2024/01/03 01:11:59;;;;;;;;;;;;;;;;;;5046374;28;19932;-63
2024/01/03 01:14:26;;;;;;;;;;;;;;;;;;5043995;28;19978;-64
2024/01/03 01:16:53;;;;;;;;;;;;;;;;;;5045395;28;19971;-62
2024/01/03 01:19:20;;;;;;;;;;;;;;;;;;5044967;28;19937;-62
2024/01/03 01:21:47;;;;;;;;;;;;;;;;;;5046233;28;19978;-64
2024/01/03 01:24:13;;;;;;;;;;;;;;;;;;5043277;28;19925;-63
2024/01/03 01:26:40;;;;;;;;;;;;;;;;;;5043470;28;19929;-63
2024/01/03 01:29:07;;;;;;;;;;;;;;;;;;5047417;28;19925;-64
2024/01/03 01:31:34;;;;;;;;;;;;;;;;;;5056140;28;19929;-65
2024/01/03 01:34:01;;;;;;;;;;;;;;;;;;5051104;28;19924;-64
2024/01/03 01:36:28;;;;;;;;;;;;;;;;;;5050343;28;19924;-64
2024/01/03 01:38:55;;;;;;;;;;;;;;;;;;5047844;28;19928;-64
2024/01/03 01:41:21;;;;;;;;;;;;;;;;;;5045162;28;19925;-64
2024/01/03 01:43:48;;;;;;;;;;;;;;;;;;5048633;28;19925;-65
2024/01/03 01:46:15;;;;;;;;;;;;;;;;;;5047291;28;19925;-64
2024/01/03 01:48:42;;;;;;;;;;;;;;;;;;5045017;28;19971;-63
2024/01/03 01:51:09;;;;;;;;;;;;;;;;;;5044700;28;19929;-63
2024/01/03 01:53:36;;;;;;;;;;;;;;;;;;5045787;28;19925;-64
2024/01/03 01:56:02;;;;;;;;;;;;;;;;;;5045217;28;19986;-64
2024/01/03 01:58:29;;;;;;;;;;;;;;;;;;5052733;28;20364;-64
2024/01/03 02:00:56;;;;;;;;;;;;;;;;;;5046092;28;19932;-63
2024/01/03 02:03:23;;;;;;;;;;;;;;;;;;5053947;28;19933;-64
2024/01/03 02:05:50;;;;;;;;;;;;;;;;;;5043616;28;19925;-65
2024/01/03 02:08:17;;;;;;;;;;;;;;;;;;5043472;28;19925;-65
2024/01/03 02:10:44;;;;;;;;;;;;;;;;;;5045952;28;19925;-63
2024/01/03 02:13:10;;;;;;;;;;;;;;;;;;5047103;28;19929;-64
2024/01/03 02:15:37;;;;;;;;;;;;;;;;;;5049114;28;19925;-65
2024/01/03 02:18:04;;;;;;;;;;;;;;;;;;5041581;28;19944;-65
2024/01/03 02:20:31;;;;;;;;;;;;;;;;;;5046423;28;19929;-63
2024/01/03 02:22:58;;;;;;;;;;;;;;;;;;5053166;28;19929;-63
2024/01/03 02:25:25;;;;;;;;;;;;;;;;;;5043213;28;19924;-63
2024/01/03 02:27:51;;;;;;;;;;;;;;;;;;5044152;28;19925;-64
2024/01/03 02:30:18;;;;;;;;;;;;;;;;;;5043183;28;19971;-65
2024/01/03 02:32:45;;;;;;;;;;;;;;;;;;5041973;28;19932;-65
2024/01/03 02:35:14;;;;;;;10.82;2.42;;;;;;;;;;5042807;28;20423;-65
2024/01/03 02:37:40;;;;;;;;;;;;;;;;;;5041058;28;20307;-64
2024/01/03 02:40:07;;;;;;;;;;;;;;;;;;5044982;28;19925;-65
2024/01/03 02:42:34;;;;;;;;;;;;;;;;;;5041243;28;19951;-64
2024/01/03 02:45:01;;;;;;;;;;;;;;;;;;5045436;28;19967;-64
2024/01/03 02:47:28;;;;;;;;;;;;;;;;;;5043169;28;19920;-64
2024/01/03 02:49:58;;;;;;;;;;;;;;;;;;5043903;28;19998;-65
2024/01/03 02:52:24;;;;;;;;;;;;;;;;;;5045626;28;19932;-64
2024/01/03 02:54:51;;;;;;;;;;;;;;;;;;5047005;28;19921;-65
2024/01/03 02:57:18;;;;;;;;;;;;;;;;;;5044994;28;19921;-65
2024/01/03 02:59:45;;;;;;;;;;;;;;;;;;5041314;28;20334;-64
2024/01/03 03:02:12;;;;;;;;;;;;;;;;;;5043636;28;20314;-64
2024/01/03 03:04:39;;;;;;;;;;;;;;;;;;5039972;28;20383;-64
2024/01/03 03:07:06;;;;;;;;;;;;;;;;;;5044250;28;19921;-65
2024/01/03 03:09:32;;;;;;;;;;;;;;;;;;5043179;28;19925;-64
2024/01/03 03:11:59;;;;;;;;;;;;;;;;;;5037881;28;19925;-64
2024/01/03 03:14:26;;;;;;;;;;;;;;;;;;5044878;28;19920;-65
2024/01/03 03:16:53;;;;;;;;;;;;;;;;;;5044791;28;19925;-65
2024/01/03 03:19:20;;;;;;;;;;;;;;;;;;5041045;28;19921;-64
2024/01/03 03:21:47;;;;;;;;;;;;;;;;;;5041399;28;19975;-64
2024/01/03 03:24:13;;;;;;;;;;;;;;;;;;5043461;28;19966;-65
2024/01/03 03:26:40;;;;;;;;;;;;;;;;;;5043642;28;19921;-64
2024/01/03 03:29:07;;;;;;;;;;;;;;;;;;5042568;28;19966;-64
2024/01/03 03:31:34;;;;;;;;;;;;;;;;;;5041009;28;19928;-64
2024/01/03 03:34:01;;;;;;;;;;;;;;;;;;5042234;28;19928;-64
2024/01/03 03:36:28;;;;;;;;;;;;;;;;;;5042333;28;19928;-64
2024/01/03 03:38:55;;;;;;;;;;;;;;;;;;5046750;28;19921;-64
2024/01/03 03:41:23;;;;;;;;;;;;;;;;;;5046988;28;19921;-64
2024/01/03 03:43:50;;;;;;;;;;;;;;;;;;5047542;28;19979;-64
2024/01/03 03:46:16;;;;;;;;;;;;;;;;;;5047844;28;19954;-64
2024/01/03 03:48:43;;;;;;;;;;;;;;;;;;5046395;28;19974;-65
2024/01/03 03:51:10;;;;;;;;;;;;;;;;;;5053250;28;19983;-63
2024/01/03 03:53:37;;;;;;;;;;;;;;;;;;5050061;28;19921;-63
2024/01/03 03:56:04;;;;;;;;;;;;;;;;;;5047516;28;19921;-63
2024/01/03 03:58:31;;;;;;;;;;;;;;;;;;5046071;28;19920;-65
2024/01/03 04:00:57;;;;;;;;;;;;;;;;;;5064070;28;19928;-64
2024/01/03 04:03:24;;;;;;;;;;;;;;;;;;5057426;28;20322;-64
2024/01/03 04:05:51;;;;;;;;;;;;;;;;;;5052930;28;19921;-66
2024/01/03 04:08:18;;;;;;;;;;;;;;;;;;5054930;28;19950;-66
2024/01/03 04:10:45;;;;;;;;;;;;;;;;;;5066092;28;19920;-66
2024/01/03 04:13:12;;;;;;;;;;;;;;;;;;5053679;28;19921;-65
2024/01/03 04:15:39;;;;;;;;;;;;;;;;;;5047762;28;20299;-66
2024/01/03 04:18:05;;;;;;;;;;;;;;;;;;5048915;28;20371;-67
2024/01/03 04:20:32;;;;;;;;;;;;;;;;;;5045585;28;20383;-65
2024/01/03 04:22:59;;;;;;;;;;;;;;;;;;5047737;28;19921;-66
2024/01/03 04:25:26;;;;;;;;;;;;;;;;;;5049616;28;19920;-65
2024/01/03 04:27:53;;;;;;;;;;;;;;;;;;5044191;28;20277;-65
2024/01/03 04:30:20;;;;;;;;;;;;;;;;;;5046438;28;20372;-66
2024/01/03 04:32:47;;;;;;;;;;;;;;;;;;5046111;28;19925;-65
2024/01/03 04:35:13;;;;;;;;;;;;;;;;;;5047709;28;20436;-66
2024/01/03 04:37:40;;;;;;;;;;;;;;;;;;5045373;28;19946;-66
2024/01/03 04:40:08;;;;;;;;;;;;;;;;;;5049398;28;19946;-65
2024/01/03 04:42:35;;;;;;;;;;;;;;;;;;5052225;28;20330;-66
2024/01/03 04:45:02;;;;;;;;;;;;;;;;;;5047714;28;19928;-67
2024/01/03 04:47:29;;;;;;;;;;;;;;;;;;5049566;28;19924;-66
2024/01/03 04:49:55;;;;;;;;;;;;;;;;;;5044111;28;19928;-66
2024/01/03 04:52:22;;;;;;;;;;;;;;;;;;5048804;28;19971;-67
2024/01/03 04:54:49;;;;;;;;;;;;;;;;;;5050846;28;19921;-66
2024/01/03 04:57:16;;;;;;;;;;;;;;;;;;5049389;28;19924;-66
2024/01/03 04:59:43;;;;;;;;;;;;;;;;;;5048705;28;19925;-66
2024/01/03 05:02:10;;;;;;;;;;;;;;;;;;5046896;28;19921;-66
2024/01/03 05:04:38;;;;;;;9.40;1.70;;;;;;;;;;5043889;28;19924;-67
2024/01/03 05:07:05;;;;;;;;;;;;;;;;;;5048089;28;20300;-66
2024/01/03 05:09:34;;;;;;;;;;;;;;;;;;5044753;28;20410;-66
2024/01/03 05:12:02;;;;;;;;;;;;;;;;;;5047184;28;20014;-67
2024/01/03 05:14:29;;;;;;;;;;;;;;;;;;5048159;28;19931;-67
2024/01/03 05:16:56;;;;;;;;;;;;;;;;;;5046983;28;20303;-66
2024/01/03 05:19:23;;;;;;;;;;;;;;;;;;5048985;28;20387;-67
2024/01/03 05:21:50;;;;;;;;;;;;;;;;;;5045123;28;19920;-66
2024/01/03 05:24:17;;;;;;;;;;;;;;;;;;5048270;28;19975;-66
2024/01/03 05:26:43;;;;;;;;;;;;;;;;;;5044224;28;19971;-66
2024/01/03 05:29:10;;;;;;;;;;;;;;;;;;5047752;28;19947;-67
2024/01/03 05:31:37;;;;;;;;;;;;;;;;;;5045215;28;19979;-67
2024/01/03 05:34:04;;;;;;;;;;;;;;;;;;5046499;28;19921;-66
2024/01/03 05:36:31;;;;;;;;;;;;;;;;;;5046484;28;19983;-66
2024/01/03 05:38:58;;;;;;;;;;;;;;;;;;5045201;28;19925;-65
2024/01/03 05:41:24;;;;;;;;;;;;;;;;;;5047321;28;19920;-66
2024/01/03 05:43:51;;;;;;;;;;;;;;;;;;5042399;28;19967;-66
2024/01/03 05:46:18;;;;;;;;;;;;;;;;;;5045077;28;20375;-66
2024/01/03 05:48:45;;;;;;;;;;;;;;;;;;5043852;28;20395;-67
2024/01/03 05:51:12;;;;;;;;;;;;;;;;;;5046530;28;20379;-66
2024/01/03 05:53:46;;;;;;;;;;;;;;;;;;5045623;28;20367;-67
2024/01/03 05:56:13;;;;;;;;;;;;;;;;;;5046888;28;19921;-66
2024/01/03 05:58:40;;;;;;;;;;;;;;;;;;5046611;28;19924;-66
2024/01/03 06:01:07;;;;;;;;;;;;;;;;;;5044182;28;19925;-67
2024/01/03 06:03:34;;;;;;;;;;;;;;;;;;5047078;28;20018;-65
2024/01/03 06:06:01;;;;;;;;;;;;;;;;;;5043253;28;19975;-67
2024/01/03 06:08:28;;;;;;;;;;;;;;;;;;5044295;28;19921;-67
2024/01/03 06:10:55;;;;;;;;;;;;;;;;;;5049710;28;19921;-67
2024/01/03 06:13:21;;;;;;;;;;;;;;;;;;5049125;28;19925;-67
2024/01/03 06:15:48;;;;;;;;;;;;;;;;;;5049428;28;19921;-66
2024/01/03 06:18:15;;;;;;;;;;;;;;;;;;5047555;28;19924;-66
2024/01/03 06:20:42;;;;;;;;;;;;;;;;;;5044564;28;19925;-66
2024/01/03 06:23:09;;;;;;;;;;;;;;;;;;5049112;28;19921;-66
2024/01/03 06:25:37;;;;;;;;;;;;;;;;;;5048254;28;19947;-66
2024/01/03 06:28:04;;;;;;;;;;;;;;;;;;5047201;28;20007;-66
2024/01/03 06:30:31;;;;;;;;;;;;;;;;;;5046877;28;19933;-66
2024/01/03 06:32:57;;;;;;;;;;;;;;;;;;5048040;28;19937;-66
2024/01/03 06:35:24;;;;;;;;;;;;;;;;;;5047349;28;19928;-66
2024/01/03 06:37:51;;;;;;;;;;;;;;;;;;5045538;28;19925;-66
2024/01/03 06:40:18;;;;;;;;;;;;;;;;;;5049142;28;19929;-66
2024/01/03 06:42:45;;;;;;;;;;;;;;;;;;5042766;28;19925;-66
2024/01/03 06:45:12;;;;;;;;;;;;;;;;;;5048838;28;19925;-67
2024/01/03 06:47:39;;;;;;;;;;;;;;;;;;5051060;28;19921;-66
2024/01/03 06:50:05;;;;;;;;;;;;;;;;;;5050810;28;19920;-66
2024/01/03 06:52:32;;;;;;;;;;;;;;;;;;5051245;28;19974;-66
2024/01/03 06:54:59;;;;;;;;;;;;;;;;;;5049393;28;19921;-66
2024/01/03 06:57:26;;;;;;;;;;;;;;;;;;5051945;28;19920;-66
2024/01/03 06:59:53;;;;;;;;;;;;;;;;;;5047133;28;19925;-65
2024/01/03 07:02:20;;;;;;;;;;;;;;;;;;5050753;28;19924;-64
2024/01/03 07:04:47;;;;;;;;;;;;;;;;;;5045914;28;20124;-64
2024/01/03 07:07:15;;;;;;;;;;;;;;;;;;5049362;28;20288;-64
2024/01/03 07:09:42;;;;;;;;;;;;;;;;;;5050116;28;19921;-64
2024/01/03 07:12:09;;;;;;;;;;;;;;;;;;5047159;28;20041;-64
2024/01/03 07:14:36;;;;;;;;;;;;;;;;;;5048361;28;19924;-64
2024/01/03 07:17:03;;;;;;;;;;;;;;;;;;5044894;28;19921;-64
2024/01/03 07:19:30;;;;;;;;;;;;;;;;;;5048681;28;20001;-65
2024/01/03 07:21:56;;;;;;;;;;;;;;;;;;5044777;28;19947;-65
2024/01/03 07:24:23;;;;;;;;;;;;;;;;;;5044854;28;19974;-65
2024/01/03 07:26:50;;;;;;;;;;;;;;;;;;5046773;28;20438;-65
2024/01/03 07:29:17;;;;;;;;;;;;;;;;;;5047837;28;19943;-65
2024/01/03 07:31:44;;;;;;;;;;;;;;;;;;5055143;28;19920;-65
2024/01/03 07:34:11;;;;;;;;;;;;;;;;;;5053795;28;19928;-66
2024/01/03 07:36:38;;;;;;;;;;;;;;;;;;5052355;28;19988;-66
2024/01/03 07:39:05;;;;;;;;;;;;;;;;;;5053623;28;19921;-66
2024/01/03 07:41:35;;;;;;;;;;;;;;;;;;5054061;28;19921;-66
2024/01/03 07:44:02;;;;;;;;;;;;;;;;;;5052904;28;19999;-65
2024/01/03 07:46:29;;;;;;;;;;;;;;;;;;5047405;28;19970;-65
2024/01/03 07:48:56;;;;;;;;;;;;;;;;;;5046405;28;19925;-65
2024/01/03 07:51:23;;;;;;;;;;;;;;;;;;5045547;28;19922;-63
2024/01/03 07:53:49;;;;;;;;;;;;;;;;;;5040231;28;20012;-64
2024/01/03 07:56:16;;;;;;;;;;;;;;;;;;5043834;28;20381;-64
2024/01/03 07:58:43;;;;;;;;;;;;;;;;;;5041231;28;20437;-64
2024/01/03 08:01:10;;;;;;;;;;;;;;;;;;5047366;28;19928;-64
2024/01/03 08:03:37;;;;;;;;;;;;;;;;;;5042070;28;19920;-64
2024/01/03 08:06:04;;;;;;;;;;;;;;;;;;5039433;28;20466;-64
2024/01/03 08:08:31;;;;;;;;;;;;;;;;;;5046532;28;19928;-64
2024/01/03 08:10:57;;;;;;;;;;;;;;;;;;5044196;28;20438;-63
2024/01/03 08:13:24;;;;;;;;;;;;;;;;;;5046673;28;20403;-65
2024/01/03 08:15:51;;;;;;;;;;;;;;;;;;5040316;28;20364;-63
2024/01/03 08:18:18;;;;;;;;;;;;;;;;;;5037620;28;19920;-63
2024/01/03 08:20:45;;;;;;;;;;;;;;;;;;5048511;28;19920;-63
2024/01/03 08:23:12;;;;;;;;;;;;;;;;;;5047798;28;19920;-63
2024/01/03 08:25:38;;;;;;;;;;;;;;;;;;5046932;28;20268;-63
2024/01/03 08:28:05;;;;;;;;;;;;;;;;;;5046489;28;20354;-63
2024/01/03 08:30:32;;;;;;;;;;;;;;;;;;5047578;28;20395;-64
2024/01/03 08:32:59;;;;;;;;;;;;;;;;;;5049161;28;20379;-64
2024/01/03 08:35:26;;;;;;;;;;;;;;;;;;5051206;28;19974;-64
2024/01/03 08:37:53;;;;;;;;;;;;;;;;;;5051100;28;19929;-63
2024/01/03 08:40:20;;;;;;;;;;;;;;;;;;5045746;28;19933;-63
2024/01/03 08:42:47;;;;;;;;;;;;;;;;;;5049549;28;19933;-63
2024/01/03 08:45:14;;;;;;;;;;;;;;;;;;5041763;28;19979;-63
2024/01/03 08:47:40;;;;;;;;;;;;;;;;;;5050480;28;19932;-64
2024/01/03 08:50:07;;;;;;;;;;;;;;;;;;5043379;28;19933;-64
2024/01/03 08:52:34;;;;;;;;;;;;;;;;;;5046117;28;19932;-64
2024/01/03 08:55:01;;;;;;;;;;;;;;;;;;5051187;28;19925;-66
2024/01/03 08:57:28;;;;;;;;;;;;;;;;;;5047612;28;19974;-64
2024/01/03 08:59:55;;;;;;;;;;;;;;;;;;5044127;28;19924;-65
2024/01/03 09:02:22;;;;;;;;;;;;;;;;;;5046391;28;19925;-63
2024/01/03 09:04:48;;;;;;;;;;;;;;;;;;5043776;28;20446;-62
2024/01/03 09:07:15;;;;;;;;;;;;;;;;;;5049778;28;19987;-65
2024/01/03 09:09:42;;;;;;;;;;;;;;;;;;5044065;28;20007;-63
2024/01/03 09:12:09;;;;;;;;;;;;;;;;;;5046610;28;20326;-63
2024/01/03 09:14:36;;;;;;;;;;;;;;;;;;5047058;28;20256;-64
2024/01/03 09:17:03;;;;;;;;;;;;;;;;;;5045605;28;20291;-63
2024/01/03 09:19:30;;;;;;;;;;;;;;;;;;5046451;28;19928;-64
2024/01/03 09:21:59;;;;;;;;;;;;;;;;;;5043604;28;19979;-64
2024/01/03 09:24:27;;;;;;;;;;;;;;;;;;5047946;28;19971;-65
2024/01/03 09:26:53;;;;;;;;;;;;;;;;;;5043569;28;19931;-65
2024/01/03 09:29:20;;;;;;;;;;;;;;;;;;5058107;28;20019;-65
2024/01/03 09:31:47;;;;;;;;;;;;;;;;;;5043859;28;19975;-64
2024/01/03 09:34:14;;;;;;;;;;;;;;;;;;5045780;28;19979;-64
2024/01/03 09:36:41;;;;;;;;;;;;;;;;;;5042357;28;19971;-63
2024/01/03 09:39:08;;;;;;;;;;;;;;;;;;5045511;28;19976;-65
2024/01/03 09:41:35;;;;;;;;;;;;;;;;;;5049337;28;20382;-66
2024/01/03 09:44:02;;;;;;;;;;;;;;;;;;5047450;28;20322;-65
2024/01/03 09:46:29;;;;;;;;;;;;;;;;;;5048034;28;19948;-63
2024/01/03 09:48:56;;;;;;;;;;;;;;;;;;5046673;28;19925;-64
2024/01/03 09:51:23;;;;;;;;;;;;;;;;;;5043206;28;19931;-64
2024/01/03 09:53:50;;;;;;;;;;;;;;;;;;5045929;28;19978;-65
2024/01/03 09:56:17;;;;;;;;;;;;;;;;;;5046851;28;19931;-66
2024/01/03 09:58:43;;;;;;;;;;;;;;;;;;5046522;28;19978;-64
2024/01/03 10:01:10;;;;;;;;;;;;;;;;;;5048839;28;20454;-67
2024/01/03 10:03:37;;;;;;;;;;;;;;;;;;5049979;28;19984;-66
2024/01/03 10:06:04;;;;;;;;;;;;;;;;;;5058501;28;19978;-66
2024/01/03 10:08:31;;;;;;;;;;;;;;;;;;5051781;28;20007;-65
2024/01/03 10:10:58;;;;;;;;;;;;;;;;;;5046274;28;19979;-65
2024/01/03 10:13:27;;;;;;;;;;;;;;;;;;5052129;28;19982;-64
2024/01/03 10:15:54;;;;;;;;;;;;;;;;;;5046091;28;19931;-65
2024/01/03 10:18:21;;;;;;;;;;;;;;;;;;5045051;28;20005;-62
2024/01/03 10:20:48;;;;;;;;;;;;;;;;;;5043560;28;19925;-64
2024/01/03 10:23:15;;;;;;;;;;;;;;;;;;5046155;28;19932;-64
2024/01/03 10:25:41;;;;;;;;;;;;;;;;;;5043373;28;19928;-65
2024/01/03 10:28:08;;;;;;;;;;;;;;;;;;5046296;28;19941;-66
2024/01/03 10:30:35;;;;;;;;;;;;;;;;;;5045828;28;19925;-64
2024/01/03 10:33:02;;;;;;;;;;;;;;;;;;5044638;28;19925;-64
2024/01/03 10:35:29;;;;;;;;;;;;;;;;;;5046688;28;20326;-64
2024/01/03 10:37:56;;;;;;;;;;;;;;;;;;5045896;28;20347;-64
2024/01/03 10:40:23;;;;;;;;;;;;;;;;;;5051485;28;19977;-64
2024/01/03 10:42:50;;;;;;;;;;;;;;;;;;5047353;28;20019;-64
2024/01/03 10:45:17;;;;;;;;;;;;;;;;;;5044849;28;19926;-65
2024/01/03 10:47:44;;;;;;;;;;;;;;;;;;5041881;28;19975;-65
2024/01/03 10:50:11;;;;;;;;;;;;;;;;;;5043133;28;19929;-65
2024/01/03 10:52:38;;;;;;;;;;;;;;;;;;5043927;28;19924;-64
2024/01/03 10:55:05;;;;;;;;;;;;;;;;;;5039397;28;19929;-64
2024/01/03 10:57:32;;;;;;;;;;;;;;;;;;5049122;28;20357;-64
2024/01/03 10:59:59;;;;;;;;;;;;;;;;;;5040979;28;20260;-65
2024/01/03 11:02:26;;;;;;;;;;;;;;;;;;5043381;28;20340;-65
2024/01/03 11:04:53;;;;;;;;;;;;;;;;;;5047069;28;20353;-65
2024/01/03 11:07:23;;;;;;;7.53;1.98;;;;;;;;;;5044369;28;20485;-64
2024/01/03 11:09:50;;;;;;;;;;;;;;;;;;5045990;28;20417;-64
2024/01/03 11:12:17;;;;;;;;;;;;;;;;;;5055104;28;19946;-64
2024/01/03 11:14:45;;;;;;;;;;;;;;;;;;5050113;28;19971;-65
2024/01/03 11:17:12;;;;;;;8.73;1.85;;;;;;;;;;5052345;28;20457;-66
2024/01/03 11:19:39;;;;;;;9.40;1.90;;;;;;;;;;5048850;28;20537;-64
2024/01/03 11:22:06;;;;;;;;;;;;;;;;;;5049516;28;20426;-65
2024/01/03 11:24:32;;;;;;;;;;;;;;;;;;5043358;28;19924;-65
2024/01/03 11:27:03;;;;;;;;;;;;;;;;;;5044934;28;19982;-66
2024/01/03 11:29:30;;;;;;;;;;;;;;;;;;5044618;28;19943;-65
2024/01/03 11:31:57;;;;;;;;;;;;;;;;;;5044285;28;19983;-65
2024/01/03 11:34:24;;;;;;;;;;;;;;;;;;5043177;28;19920;-65
2024/01/03 11:36:51;;;;;;;;;;;;;;;;;;5042193;28;19921;-64
2024/01/03 11:39:18;;;;;;;;;;;;;;;;;;5044058;28;19925;-64
2024/01/03 11:41:45;;;;;;;;;;;;;;;;;;5047201;28;19924;-65
2024/01/03 11:44:12;;;;;;;;;;;;;;;;;;5044991;28;19928;-65
2024/01/03 11:46:39;;;;;;;;;;;;;;;;;;5043202;28;19947;-65
2024/01/03 11:49:06;;;;;;;;;;;;;;;;;;5042884;28;19924;-64
2024/01/03 11:51:32;;;;;;;;;;;;;;;;;;5044353;28;20181;-64
2024/01/03 11:53:59;;;;;;;;;;;;;;;;;;5040732;28;20277;-64
2024/01/03 11:56:26;;;;;;;;;;;;;;;;;;5044553;28;19987;-63
2024/01/03 11:58:53;;;;;;;;;;;;;;;;;;5042195;28;20350;-65
2024/01/03 12:01:20;;;;;;;;;;;;;;;;;;5048123;28;20322;-64
2024/01/03 12:03:47;;;;;;;;;;;;;;;;;;5046723;28;20532;-64
2024/01/03 12:06:13;;;;;;;;;;;;;;;;;;5047124;28;20845;-64
2024/01/03 12:08:40;;;;;;;;;;;;;;;;;;5056153;28;20346;-66
2024/01/03 12:11:07;;;;;;;;;;;;;;;;;;5047133;28;19944;-65
2024/01/03 12:13:34;;;;;;;;;;;;;;;;;;5050040;28;19928;-66
2024/01/03 12:16:01;;;;;;;;;;;;;;;;;;5043519;28;20020;-65
2024/01/03 12:18:28;;;;;;;;;;;;;;;;;;5049692;28;19974;-65
2024/01/03 12:20:55;;;;;;;;;;;;;;;;;;5048051;28;19982;-65
2024/01/03 12:23:22;;;;;;;;;;;;;;;;;;5048361;28;19921;-64
2024/01/03 12:25:49;;;;;;;;;;;;;;;;;;5063929;28;19920;-65
2024/01/03 12:28:17;;;;;;;;;;;;;;;;;;5049871;28;20276;-65
2024/01/03 12:30:44;;;;;;;;;;;;;;;;;;5049162;28;20330;-65
2024/01/03 12:33:12;;;;;;;;;;;;;;;;;;5049365;28;20362;-66
2024/01/03 12:35:39;;;;;;;;;;;;;;;;;;5046946;28;19921;-65
2024/01/03 12:38:06;;;;;;;;;;;;;;;;;;5048285;28;19921;-64
2024/01/03 12:40:32;;;;;;;;;;;;;;;;;;5046049;28;19982;-65
2024/01/03 12:43:00;;;;;;;;;;;;;;;;;;5047458;28;19920;-65
2024/01/03 12:45:27;;;;;;;;;;;;;;;;;;5049370;28;19920;-65
2024/01/03 12:47:53;;;;;;;;;;;;;;;;;;5047881;28;19925;-66
2024/01/03 12:50:20;;;;;;;;;;;;;;;;;;5047224;28;19925;-66
2024/01/03 12:52:48;;;;;;;;;;;;;;;;;;5050206;28;20035;-65
2024/01/03 12:55:15;;;;;;;;;;;;;;;;;;5049050;28;19921;-66
2024/01/03 12:57:41;;;;;;;;;;;;;;;;;;5048707;28;19921;-65
2024/01/03 13:00:10;;;;;;;;;;;;;;;;;;5048682;28;20422;-65
2024/01/03 13:02:36;;;;;;;;;;;;;;;;;;5047873;28;19927;-66
2024/01/03 13:05:03;;;;;;;;;;;;;;;;;;5046133;28;19929;-69
2024/01/03 13:07:30;;;;;;;;;;;;;;;;;;5049053;28;19929;-66
2024/01/03 13:09:57;;;;;;;;;;;;;;;;;;5045575;28;19967;-67
2024/01/03 13:12:24;;;;;;;;;;;;;;;;;;5048867;28;19925;-65
2024/01/03 13:14:51;;;;;;;;;;;;;;;;;;5047276;28;19921;-66
2024/01/03 13:17:18;;;;;;;;;;;;;;;;;;5047596;28;19921;-66
2024/01/03 13:19:45;;;;;;;;;;;;;;;;;;5046756;28;19928;-64
2024/01/03 13:22:12;;;;;;;;;;;;;;;;;;5047660;28;19971;-65
2024/01/03 13:24:40;;;;;;;;;;;;;;;;;;5050160;28;19986;-64
2024/01/03 13:27:07;;;;;;;;;;;;;;;;;;5044700;28;19921;-66
2024/01/03 13:29:34;;;;;;;;;;;;;;;;;;5049420;28;19925;-67
2024/01/03 13:32:01;;;;;;;;;;;;;;;;;;5049147;28;19971;-66
2024/01/03 13:34:28;;;;;;;;;;;;;;;;;;5048340;28;19921;-66
2024/01/03 13:36:55;;;;;;;;;;;;;;;;;;5046682;28;19920;-65
2024/01/03 13:39:21;;;;;;;;;;;;;;;;;;5045858;28;19928;-64
2024/01/03 13:41:48;;;;;;;;;;;;;;;;;;5049144;28;19925;-63
2024/01/03 13:44:15;;;;;;;;;;;;;;;;;;5043215;28;19971;-63
2024/01/03 13:46:42;;;;;;;;;;;;;;;;;;5046182;28;19928;-63
2024/01/03 13:49:10;;;;;;;;;;;;;;;;;;5042353;28;19921;-63
2024/01/03 13:51:37;;;;;;;;;;;;;;;;;;5043992;28;19920;-63
2024/01/03 13:54:04;;;;;;;;;;;;;;;;;;5044857;28;19931;-63
2024/01/03 13:56:31;;;;;;;;;;;;;;;;;;5045292;28;19972;-63
2024/01/03 13:58:58;;;;;;;;;;;;;;;;;;5047289;28;19921;-63
2024/01/03 14:01:25;;;;;;;;;;;;;;;;;;5044122;28;19921;-63
2024/01/03 14:03:52;;;;;;;;;;;;;;;;;;5046016;28;19979;-62
2024/01/03 14:06:19;;;;;;;;;;;;;;;;;;5042761;28;19921;-64
2024/01/03 14:08:45;;;;;;;;;;;;;;;;;;5042853;28;19921;-65
2024/01/03 14:11:12;;;;;;;;;;;;;;;;;;5044667;28;19921;-65
2024/01/03 14:13:40;;;;;;;;;;;;;;;;;;5042556;28;19928;-63
2024/01/03 14:16:07;;;;;;;;;;;;;;;;;;5044548;28;20271;-66
2024/01/03 14:18:34;;;;;;;;;;;;;;;;;;5047558;28;19925;-66
2024/01/03 14:21:01;;;;;;;;;;;;;;;;;;5043554;28;20016;-66
2024/01/03 14:23:28;;;;;;;;;;;;;;;;;;5048432;28;19921;-65
2024/01/03 14:25:55;;;;;;;;;;;;;;;;;;5044328;28;19971;-66
2024/01/03 14:28:22;;;;;;;;;;;;;;;;;;5046220;28;19948;-65
2024/01/03 14:30:49;;;;;;;;;;;;;;;;;;5044634;28;19982;-66
2024/01/03 14:33:16;;;;;;;;;;;;;;;;;;5044031;28;19982;-66
2024/01/03 14:35:43;;;;;;;;;;;;;;;;;;5045795;28;20007;-66
2024/01/03 14:38:10;;;;;;;;;;;;;;;;;;5044683;28;19932;-65
2024/01/03 14:40:39;;;;;;;;;;;;;;;;;;5042382;28;19920;-66
2024/01/03 14:43:24;;;;;;;;;;;;;;;;;;5042880;28;19943;-66
2024/01/03 14:45:51;;;;;;;;;;;;;;;;;;5049338;28;19927;-65
2024/01/03 14:48:18;;;;;;;;;;;;;;;;;;5043370;28;19991;-66
2024/01/03 14:50:45;;;;;;;;;;;;;;;;;;5046459;28;19928;-64
2024/01/03 14:53:12;;;;;;;;;;;;;;;;;;5043887;28;19921;-64
2024/01/03 14:55:39;;;;;;;;;;;;;;;;;;5044018;28;19920;-63
2024/01/03 14:58:06;;;;;;;;;;;;;;;;;;5041719;28;20019;-63
2024/01/03 15:00:33;;;;;;;;;;;;;;;;;;5044679;28;19970;-65
2024/01/03 15:03:01;;;;;;;;;;;;;;;;;;5043950;28;20685;-66
2024/01/03 15:05:28;;;;;;;;;;;;;;;;;;5046495;28;19928;-64
2024/01/03 15:07:55;;;;;;;;;;;;;;;;;;5044293;28;19921;-66
2024/01/03 15:10:23;;;;;;;;;;;;;;;;;;5040660;28;19921;-62
2024/01/03 15:12:50;;;;;;;;;;;;;;;;;;5044416;28;20435;-63
2024/01/03 15:15:17;;;;;;;;;;;;;;;;;;5045641;28;19975;-65
2024/01/03 15:17:47;;;;;;;;;;;;;;;;;;5042610;28;19924;-64
2024/01/03 15:20:14;;;;;;;;;;;;;;;;;;5043002;28;19931;-64
2024/01/03 15:22:41;;;;;;;;;;;;;;;;;;5044664;28;19921;-65
2024/01/03 15:25:08;;;;;;;;;;;;;;;;;;5041894;28;20406;-65
2024/01/03 15:27:35;;;;;;;;;;;;;;;;;;5048581;28;20295;-65
2024/01/03 15:30:03;;;;;;;;;;;;;;;;;;5041364;28;19928;-66
2024/01/03 15:32:30;;;;;;;;;;;;;;;;;;5044980;28;20337;-65
2024/01/03 15:34:57;;;;;;;;;;;;;;;;;;5041952;28;19971;-65
2024/01/03 15:37:25;;;;;;;;;;;;;;;;;;5044066;28;19921;-66
2024/01/03 15:39:51;;;;;;;;;;;;;;;;;;5043576;28;19924;-64
2024/01/03 15:42:18;;;;;;;;;;;;;;;;;;5045922;28;20307;-64
2024/01/03 15:44:45;;;;;;;;;;;;;;;;;;5052031;28;19921;-64
2024/01/03 15:47:14;;;;;;;;;;;;;;;;;;5043679;28;19920;-64
2024/01/03 15:49:41;;;;;;;;;;;;;;;;;;5043080;28;19927;-65
2024/01/03 15:52:08;;;;;;;;;;;;;;;;;;5041380;28;19921;-66
2024/01/03 15:54:35;;;;;;;;;;;;;;;;;;5046538;28;19943;-66
2024/01/03 15:57:02;;;;;;;;;;;;;;;;;;5042486;28;20429;-65
2024/01/03 15:59:29;;;;;;;;;;;;;;;;;;5048987;28;19921;-65
2024/01/03 16:01:56;;;;;;;;;;;;;;;;;;5041740;28;19943;-65
2024/01/03 16:04:24;;;;;;;;;;;;;;;;;;5050712;28;19982;-66
2024/01/03 16:06:51;;;;;;;;;;;;;;;;;;5049318;28;20335;-66
2024/01/03 16:09:21;;;;;;;;;;;;;;;;;;5044218;28;20288;-67
2024/01/03 16:11:48;;;;;;;;;;;;;;;;;;5038783;28;21164;-68
2024/01/03 16:14:14;;;;;;;;;;;;;;;;;;5043665;28;19929;-66
2024/01/03 16:16:41;;;;;;;;;;;;;;;;;;5043459;28;19920;-63
2024/01/03 16:19:08;;;;;;;;;;;;;;;;;;5040295;28;19928;-64
2024/01/03 16:21:35;;;;;;;;;;;;;;;;;;5038890;28;20343;-66
2024/01/03 16:24:02;;;;;;;;;;;;;;;;;;5035777;28;20297;-65
2024/01/03 16:26:29;;;;;;;;;;;;;;;;;;5040151;28;19932;-64
2024/01/03 16:28:56;;;;;;;;;;;;;;;;;;5037488;28;19921;-65
2024/01/03 16:31:22;;;;;;;;;;;;;;;;;;5039463;28;19971;-65
2024/01/03 16:33:51;;;;;;;;;;;;;;;;;;5039339;28;20379;-66
2024/01/03 16:36:18;;;;;;;;;;;;;;;;;;5041078;28;19927;-66
2024/01/03 16:38:45;;;;;;;;;;;;;;;;;;5041127;28;19971;-66
2024/01/03 16:41:13;;;;;;;;;;;;;;;;;;5038138;28;19948;-66